< < Back
Terminal Aerodrome Forecast


Current Version              Previous Versions:   1  2  3  4  5  6  7  8  9  

Terminal Aerodrome Forecast

048
FTUS44 KOHX 261721
TAFBNA
TAF
KBNA 261721Z 2618/2718 05004KT P6SM SCT050 SCT250
     FM262100 05006KT P6SM VCTS BKN045CB
     FM270300 00000KT P6SM FEW060 SCT150
      TEMPO 2708/2712 5SM BR=



Latest METAR

585
SAUS70 KWBC 271300 RRB
MTRBNA
METAR KBNA 271253Z 00000KT 10SM FEW180 SCT250 25/22 A3010 RMK AO2 SLP185
T02500222


USA.gov is the U.S. government's official web portal to all federal, state and local government web resources and services.